createdAt,value
2022-09-24T00:03:25.285Z,13.26
2022-09-24T00:08:26.985Z,13.25
2022-09-24T00:13:29.485Z,13.29
2022-09-24T00:18:31.232Z,13.25
2022-09-24T00:23:32.836Z,13.24
2022-09-24T00:28:34.720Z,13.24
2022-09-24T00:33:36.489Z,13.24
2022-09-24T00:38:38.052Z,13.25
2022-09-24T00:43:39.691Z,13.29
2022-09-24T00:48:43.941Z,13.31
2022-09-24T00:53:48.590Z,13.27
2022-09-24T00:58:54.959Z,13.28
2022-09-24T01:03:58.156Z,13.28
2022-09-24T01:09:00.912Z,13.21
2022-09-24T01:14:43.752Z,13.19
2022-09-24T01:20:11.097Z,13.17
2022-09-24T01:25:59.575Z,13.23
2022-09-24T01:31:11.992Z,13.23
2022-09-24T01:36:16.226Z,13.26
2022-09-24T01:41:19.072Z,13.20
2022-09-24T01:46:22.805Z,13.27
2022-09-24T01:51:56.177Z,13.22
2022-09-24T01:57:07.583Z,13.22
2022-09-24T02:02:12.196Z,13.20
2022-09-24T02:07:35.180Z,13.29
2022-09-24T02:12:42.050Z,13.21
2022-09-24T02:17:48.942Z,13.25
2022-09-24T02:22:54.246Z,13.24
2022-09-24T02:27:56.282Z,13.25
2022-09-24T02:32:58.971Z,13.27
2022-09-24T02:38:04.114Z,13.36
2022-09-24T02:43:07.796Z,13.41
2022-09-24T02:48:09.365Z,13.39
2022-09-24T02:53:10.936Z,13.45
2022-09-24T02:58:12.563Z,13.39
2022-09-24T03:03:15.589Z,13.41
2022-09-24T03:08:17.353Z,13.52
2022-09-24T03:13:19.088Z,13.45
2022-09-24T03:18:20.779Z,13.47
2022-09-24T03:23:22.450Z,13.54
2022-09-24T03:28:24.154Z,13.56
2022-09-24T03:33:34.033Z,13.60
2022-09-24T03:38:37.371Z,13.61
2022-09-24T03:43:39.194Z,13.88
2022-09-24T03:48:41.436Z,13.79
2022-09-24T03:53:43.155Z,13.75
2022-09-24T03:58:48.304Z,13.76
2022-09-24T04:03:50.787Z,13.68
2022-09-24T04:08:52.589Z,13.64
2022-09-24T04:13:54.307Z,13.77
2022-09-24T04:18:55.997Z,13.69
2022-09-24T04:23:57.850Z,13.68
2022-09-24T04:28:59.664Z,13.64
2022-09-24T04:34:02.045Z,13.68
2022-09-24T04:39:03.854Z,13.71
2022-09-24T04:44:05.623Z,13.76
2022-09-24T04:49:09.197Z,13.64
2022-09-24T04:54:11.044Z,13.65
2022-09-24T04:59:12.632Z,13.68
2022-09-24T05:04:14.205Z,13.66
2022-09-24T05:09:15.992Z,13.54
2022-09-24T05:14:17.858Z,13.50
2022-09-24T05:19:20.343Z,13.54
2022-09-24T05:24:22.194Z,13.56
2022-09-24T05:29:23.874Z,13.63
2022-09-24T05:34:25.474Z,13.62
2022-09-24T05:39:33.479Z,13.55
2022-09-24T05:44:37.334Z,13.61
2022-09-24T05:49:39.378Z,13.57
2022-09-24T05:54:41.017Z,13.58
2022-09-24T05:59:42.753Z,13.58
2022-09-24T06:04:44.328Z,13.54
2022-09-24T06:09:47.400Z,13.62
2022-09-24T06:14:49.059Z,13.64
2022-09-24T06:19:50.798Z,13.57
2022-09-24T06:24:52.429Z,13.50
2022-09-24T06:29:54.059Z,13.39
2022-09-24T06:34:59.173Z,13.32
2022-09-24T06:40:01.156Z,13.29
2022-09-24T06:45:02.996Z,13.22
2022-09-24T06:50:05.189Z,13.21
2022-09-24T06:55:07.124Z,13.19
2022-09-24T07:00:10.124Z,13.21
2022-09-24T07:05:11.762Z,13.29
2022-09-24T07:10:15.114Z,13.28
2022-09-24T07:15:17.128Z,13.28
2022-09-24T07:20:19.103Z,13.32
2022-09-24T07:25:20.774Z,13.38
2022-09-24T07:30:22.429Z,13.47
2022-09-24T07:35:24.191Z,13.49
2022-09-24T07:40:26.914Z,13.42
2022-09-24T07:45:29.831Z,13.48
2022-09-24T07:50:39.418Z,13.70
2022-09-24T07:55:41.627Z,13.86
2022-09-24T08:00:43.445Z,13.90
2022-09-24T08:05:45.841Z,14.07
2022-09-24T08:10:47.633Z,13.93
2022-09-24T08:15:57.431Z,14.06
2022-09-24T08:21:03.969Z,14.11
2022-09-24T08:26:05.920Z,14.00
2022-09-24T08:31:11.288Z,14.02
2022-09-24T08:36:12.962Z,13.95
2022-09-24T08:41:31.095Z,13.91
2022-09-24T08:47:08.989Z,13.99
2022-09-24T08:52:34.769Z,14.16
2022-09-24T08:58:02.722Z,14.04
2022-09-24T09:03:32.243Z,14.11
2022-09-24T09:09:06.738Z,14.22
2022-09-24T09:14:12.221Z,14.34
2022-09-24T09:19:16.912Z,14.42
2022-09-24T09:24:23.392Z,14.36
2022-09-24T09:29:28.044Z,14.33
2022-09-24T09:34:49.835Z,14.32
2022-09-24T09:40:10.391Z,14.45
2022-09-24T09:45:30.427Z,14.46
2022-09-24T09:50:49.429Z,14.54
2022-09-24T09:55:57.407Z,14.59
2022-09-24T10:01:08.271Z,14.45
2022-09-24T10:06:13.014Z,14.43
2022-09-24T10:11:16.459Z,14.89
2022-09-24T10:16:18.157Z,14.59
2022-09-24T10:21:34.785Z,14.72
2022-09-24T10:26:44.534Z,14.55
2022-09-24T10:31:48.940Z,14.68
2022-09-24T10:36:52.960Z,14.61
2022-09-24T10:41:57.098Z,14.61
2022-09-24T10:47:19.695Z,14.64
2022-09-24T10:52:57.519Z,14.54
2022-09-24T10:58:28.815Z,14.69
2022-09-24T11:04:05.541Z,14.78
2022-09-24T11:09:27.894Z,14.81
2022-09-24T11:14:35.849Z,14.94
2022-09-24T11:19:51.863Z,15.03
2022-09-24T11:25:31.085Z,15.10
2022-09-24T11:30:47.883Z,15.16
2022-09-24T11:36:04.280Z,15.37
2022-09-24T11:41:36.625Z,15.35
2022-09-24T11:46:52.411Z,15.52
2022-09-24T11:52:12.436Z,15.48
2022-09-24T11:57:16.139Z,15.51
2022-09-24T12:02:28.654Z,15.57
2022-09-24T12:07:34.653Z,15.66
2022-09-24T12:12:42.165Z,15.93
2022-09-24T12:17:58.003Z,16.12
2022-09-24T12:23:07.934Z,16.14
2022-09-24T12:28:14.006Z,16.08
2022-09-24T12:33:35.547Z,16.11
2022-09-24T12:39:00.735Z,16.21
2022-09-24T12:44:14.383Z,16.11
2022-09-24T12:49:26.748Z,16.19
2022-09-24T12:54:33.176Z,16.22
2022-09-24T12:59:45.864Z,16.15
2022-09-24T13:05:11.967Z,16.25
2022-09-24T13:10:16.238Z,16.23
2022-09-24T13:15:35.152Z,16.48
2022-09-24T13:20:47.543Z,16.70
2022-09-24T13:26:09.195Z,16.48
2022-09-24T13:31:22.848Z,16.31
2022-09-24T13:36:54.861Z,16.33
2022-09-24T13:42:15.145Z,16.09
2022-09-24T13:47:31.984Z,16.22
2022-09-24T13:52:39.632Z,16.26
2022-09-24T13:57:46.658Z,16.14
2022-09-24T14:03:25.740Z,16.16
2022-09-24T14:08:30.068Z,16.07
2022-09-24T14:13:32.325Z,15.97
2022-09-24T14:18:34.075Z,15.87
2022-09-24T14:23:51.469Z,15.86
2022-09-24T14:28:54.519Z,15.89
2022-09-24T14:33:56.570Z,15.89
2022-09-24T14:39:03.356Z,15.93
2022-09-24T14:44:26.098Z,15.83
2022-09-24T14:49:31.185Z,15.91
2022-09-24T14:54:34.670Z,15.93
2022-09-24T14:59:38.099Z,16.30
2022-09-24T15:04:39.932Z,16.00
2022-09-24T15:09:41.626Z,15.87
2022-09-24T15:14:54.573Z,15.96
2022-09-24T15:19:57.946Z,16.32
2022-09-24T15:25:02.063Z,16.14
2022-09-24T15:30:08.084Z,16.30
2022-09-24T15:35:15.195Z,16.12
2022-09-24T15:40:23.419Z,15.86
2022-09-24T15:45:25.811Z,15.90
2022-09-24T15:50:27.507Z,15.72
2022-09-24T15:55:30.953Z,15.65
2022-09-24T16:00:33.291Z,15.51
2022-09-24T16:05:34.916Z,15.56
2022-09-24T16:10:36.929Z,15.63
2022-09-24T16:15:39.576Z,15.46
2022-09-24T16:20:42.328Z,15.18
2022-09-24T16:25:58.943Z,15.03
2022-09-24T16:31:07.130Z,15.08
2022-09-24T16:36:09.204Z,14.90
2022-09-24T16:41:10.938Z,15.04
2022-09-24T16:46:16.384Z,15.09
2022-09-24T16:51:21.519Z,14.99
2022-09-24T16:56:23.535Z,15.11
2022-09-24T17:01:25.365Z,15.19
2022-09-24T17:06:31.365Z,15.37
2022-09-24T17:11:33.139Z,15.28
2022-09-24T17:16:35.005Z,15.24
2022-09-24T17:21:38.798Z,15.14
2022-09-24T17:26:40.479Z,15.13
2022-09-24T17:31:42.259Z,15.22
2022-09-24T17:36:43.943Z,15.15
2022-09-24T17:41:45.531Z,14.98
2022-09-24T17:46:47.189Z,14.96
2022-09-24T17:51:49.461Z,14.97
2022-09-24T17:56:51.104Z,14.96
2022-09-24T18:01:52.825Z,15.04
2022-09-24T18:06:54.501Z,14.85
2022-09-24T18:11:56.966Z,14.72
2022-09-24T18:16:59.912Z,14.63
2022-09-24T18:22:03.480Z,14.53
2022-09-24T18:27:05.286Z,14.52
2022-09-24T18:32:07.427Z,14.44
2022-09-24T18:37:09.001Z,14.42
2022-09-24T18:42:10.802Z,14.34
2022-09-24T18:47:14.970Z,14.30
2022-09-24T18:52:16.550Z,14.28
2022-09-24T18:57:18.291Z,14.24
2022-09-24T19:02:23.757Z,14.20
2022-09-24T19:07:25.694Z,14.11
2022-09-24T19:12:29.903Z,14.11
2022-09-24T19:17:32.719Z,14.05
2022-09-24T19:22:34.395Z,14.08
2022-09-24T19:27:36.012Z,14.02
2022-09-24T19:32:38.951Z,13.95
2022-09-24T19:37:40.623Z,13.88
2022-09-24T19:42:44.123Z,13.87
2022-09-24T19:47:46.073Z,13.80
2022-09-24T19:52:48.696Z,13.76
2022-09-24T19:57:50.441Z,13.70
2022-09-24T20:02:54.322Z,13.69
2022-09-24T20:07:55.936Z,13.64
2022-09-24T20:12:58.285Z,13.57
2022-09-24T20:18:03.129Z,13.53
2022-09-24T20:23:10.904Z,13.52
2022-09-24T20:28:16.463Z,13.50
2022-09-24T20:33:20.307Z,13.41
2022-09-24T20:38:24.055Z,13.37
2022-09-24T20:43:27.740Z,13.32
2022-09-24T20:48:32.180Z,13.29
2022-09-24T20:53:34.667Z,13.26
2022-09-24T20:58:37.735Z,13.18
2022-09-24T21:03:44.848Z,13.19
2022-09-24T21:08:46.941Z,13.17
2022-09-24T21:13:53.755Z,13.10
2022-09-24T21:18:55.877Z,13.08
2022-09-24T21:24:01.339Z,13.04
2022-09-24T21:29:10.624Z,13.01
2022-09-24T21:34:19.142Z,13.03
2022-09-24T21:39:23.276Z,12.96
2022-09-24T21:44:25.955Z,12.97
2022-09-24T21:49:27.675Z,12.92
2022-09-24T21:54:30.323Z,12.85
2022-09-24T21:59:58.182Z,12.83
2022-09-24T22:05:01.477Z,12.78
2022-09-24T22:10:03.103Z,12.74
2022-09-24T22:15:05.280Z,12.71
2022-09-24T22:20:07.557Z,12.68
2022-09-24T22:25:09.270Z,12.65
2022-09-24T22:30:12.513Z,12.64
2022-09-24T22:35:32.545Z,12.56
2022-09-24T22:40:35.336Z,12.53
2022-09-24T22:45:37.001Z,12.46
2022-09-24T22:50:38.664Z,12.49
2022-09-24T22:55:40.390Z,12.48
2022-09-24T23:00:42.382Z,12.40
2022-09-24T23:05:45.240Z,12.38
2022-09-24T23:10:46.871Z,12.31
2022-09-24T23:15:48.705Z,12.30
2022-09-24T23:20:50.379Z,12.23
2022-09-24T23:25:51.950Z,12.21
2022-09-24T23:31:00.036Z,12.16
2022-09-24T23:36:03.162Z,12.07
2022-09-24T23:41:05.411Z,12.04
2022-09-24T23:46:07.601Z,12.00
2022-09-24T23:51:10.109Z,12.04
2022-09-24T23:56:13.002Z,11.95
